Aviation Digital Data Service (ADDS)

Output produced by METARs form (1711 UTC 29 May 2017)
found at http://www.aviationweather.gov/adds/metars/
 
TAF TLPC 291100Z 2912/3012 10010KT 9999 SCT026 
     TEMPO 2912/2918 SHRA
       
TAF TLPL 291100Z 2912/3012 10020KT 9999 SCT026 
     TEMPO 2912/2918 SHRA